Terminal Aerodrome Forecast
Issued by NWS Mobile, AL

Home | Current Version | Previous Version | Text Only | Print | Product List | Glossary On
Versions: 1 2 3 4 5 6 7 8 9 10 11 12 13 14 15 16 17 18 19 20 21 22 23 24 25 26
000
FTUS44 KMOB 231124
TAFMOB
TAF
KMOB 231124Z 2312/2412 14009KT 2SM BR OVC002
      TEMPO 2312/2314 1/2SM FG VV002
     FM231500 12008KT P6SM BKN015
     FM231800 14011KT P6SM BKN025
      TEMPO 2320/2324 5SM TSRA BKN015CB
     FM240600 15005KT 5SM BR BKN010=

USA.gov is the U.S. government's official web portal to all federal, state and local government web resources and services.